Terminal Aerodrome Forecast
Issued by NWS

Home | Current Version | Previous Version | Text Only | Print | Product List | Glossary On
Versions: 1 2 3 4 5 6 7 8 9 10 11 12 13 14 15 16 17 18 19 20
371
FTUS43 KIND 301424 AAA
TAFHUF
TAF AMD
KHUF 301424Z 3014/3112 28008KT P6SM SCT020 SCT080
     FM301800 28008KT P6SM VCTS BKN035CB
     FM302300 00000KT P6SM SCT030
     FM310800 00000KT 3SM BR SCT004=

USA.gov is the U.S. government's official web portal to all federal, state and local government web resources and services.